• Join FlightAware (Why Join?)
  • Login
  • US Flag 
01:21PM EST


 

Airport Tracker/Info


-or-


 

Live Flight TrackerFlight Track Log ✈ ZS-SNC ✈ 17-Apr-2013 ✈ FACT / CPT - FAOR / JNB

Flight Track Log - Related Links

Times and Time Zones

All times are in EDT time to prevent confusion due to time zone crossing. See the ZS-SNC flight status page for this flight to view local times or setup timezone preferences in your user account.

Time Position Orientation Groundspeed Altitude Reporting Facility
EDT Latitude Longitude Course Direction KTS MPH feet Rate Location/Type
07:28AM -33.9580 18.5990 345° North 115 132 1,500  Level FlightAware
07:29AM -33.9430 18.5950 348° North 133 153 2,200 1,320 Climbing FlightAware
07:29AM -33.9300 18.5900 342° North 152 175 2,500 2,280 Climbing FlightAware
07:32AM -33.7528 18.8394 50° Northeast  Level Estimated
07:32AM -33.8220 18.7000 50° Northeast 307 353 8,700  Level FlightAware
07:32AM -33.8080 18.7400 67° East 316 364 9,800 2,040 Climbing FlightAware
07:33AM -33.7790 18.8200 66° East 367 422 11,100 2,220 Climbing FlightAware
07:33AM -33.7510 18.8910 65° Northeast 370 426 13,000 3,240 Climbing FlightAware
07:34AM -33.7220 18.9600 63° Northeast 364 419 15,200 2,640 Climbing FlightAware
07:35AM -33.6830 19.0540 64° Northeast 387 445 16,800 2,040 Climbing FlightAware
07:36AM -33.6510 19.1320 64° Northeast 403 464 18,300 2,280 Climbing FlightAware
07:36AM -33.6080 19.2180 59° Northeast 387 445 20,100 1,740 Climbing FlightAware
07:37AM -33.5600 19.2860 50° Northeast 417 480 20,800 1,080 Climbing FlightAware
07:38AM -33.5090 19.3630 52° Northeast 442 509 21,600 1,800 Climbing FlightAware
07:38AM -33.4520 19.4480 51° Northeast 441 507 23,400 2,040 Climbing FlightAware
07:39AM -33.4010 19.5230 51° Northeast 445 512 24,500 1,620 Climbing FlightAware
07:40AM -33.3400 19.6130 51° Northeast 462 532 25,700 1,800 Climbing FlightAware
07:40AM -33.2890 19.6890 51° Northeast 462 532 27,100 2,100 Climbing FlightAware
07:41AM -33.2310 19.7740 51° Northeast 467 537 28,500 1,860 Climbing FlightAware
07:42AM -33.1690 19.8660 51° Northeast 482 555 29,800 1,620 Climbing FlightAware
07:43AM -33.1130 19.9470 50° Northeast 491 565 30,800 2,040 Climbing FlightAware
07:43AM -33.0480 20.0430 51° Northeast 487 560 32,700 2,100 Climbing FlightAware
07:44AM -32.9910 20.1250 50° Northeast 490 564 33,800 2,460 Climbing FlightAware
07:45AM -32.9400 20.2000 51° Northeast 464 534 36,000 2,400 Climbing FlightAware
07:45AM -32.8810 20.2860 51° Northeast 463 533 37,000 1,200 Climbing FlightAware
07:46AM -32.8160 20.3790 50° Northeast 481 554 37,700 960 Climbing FlightAware
07:47AM -32.7520 20.4720 51° Northeast 483 556 38,500 1,020 Climbing FlightAware
07:47AM -32.6950 20.5540 50° Northeast 483 556 39,200 960 Climbing FlightAware
07:48AM -32.6400 20.6340 51° Northeast 484 557 39,800 840 Climbing FlightAware
07:49AM -32.5780 20.7220 50° Northeast 484 557 40,400 720 Climbing FlightAware
07:50AM -32.5210 20.8050 51° Northeast 480 552 40,900 420 Climbing FlightAware
07:50AM -32.4550 20.8990 50° Northeast 484 557 41,000 60 Climbing FlightAware
07:51AM -32.4100 20.9620 50° Northeast 488 562 41,000  Level FlightAware
07:52AM -32.3450 21.0550 50° Northeast 490 564 41,000  Level FlightAware
07:52AM -32.2970 21.1260 51° Northeast 490 564 41,000  Level FlightAware
07:53AM -32.2480 21.1970 51° Northeast 490 564 41,000  Level FlightAware
07:54AM -32.1880 21.2860 51° Northeast 490 564 41,000  Level FlightAware
07:54AM -32.1390 21.3560 50° Northeast 490 564 41,000  Level FlightAware
07:55AM -32.0910 21.4270 51° Northeast 490 564 41,000  Level FlightAware
07:56AM -32.0420 21.4980 51° Northeast 490 564 41,000  Level FlightAware
07:56AM -31.9940 21.5690 51° Northeast 490 564 41,000  Level FlightAware
07:57AM -31.9330 21.6570 51° Northeast 490 564 41,000  Level FlightAware
07:58AM -31.7880 21.8380 47° Northeast 481 554 41,000  Level FlightAware
07:59AM -31.6860 21.9790 50° Northeast 485 558 41,000  Level FlightAware
08:00AM -31.6070 22.0900 50° Northeast 483 556 41,000  Level FlightAware
08:01AM -31.5580 22.1590 50° Northeast 483 556 41,000  Level FlightAware
08:01AM -31.5090 22.2270 50° Northeast 483 556 41,000  Level FlightAware
08:02AM -31.4600 22.2950 50° Northeast 483 556 41,000  Level FlightAware
08:03AM -31.3990 22.3800 50° Northeast 483 556 41,000  Level FlightAware
08:04AM -31.3500 22.4480 50° Northeast 483 556 41,000  Level FlightAware
08:04AM -31.3010 22.5170 50° Northeast 483 556 41,000  Level FlightAware
08:05AM -31.1780 22.6770 48° Northeast 474 545 41,000  Level FlightAware
08:06AM -31.1250 22.7480 49° Northeast 477 549 41,000  Level FlightAware
08:06AM -31.0760 22.8150 50° Northeast 477 549 41,000  Level FlightAware
08:07AM -30.9980 22.9190 49° Northeast 469 540 41,000  Level FlightAware
08:08AM -30.9290 23.0010 46° Northeast 471 542 41,000  Level FlightAware
08:08AM -30.8650 23.0790 46° Northeast 471 542 41,000  Level FlightAware
08:09AM -30.8110 23.1450 46° Northeast 476 548 41,000  Level FlightAware
08:10AM -30.7370 23.2360 47° Northeast 476 548 41,000  Level FlightAware
08:11AM -30.6770 23.3080 46° Northeast 475 547 41,000  Level FlightAware
08:11AM -30.6090 23.3910 46° Northeast 475 547 41,000  Level FlightAware
08:12AM -30.5450 23.4680 46° Northeast 474 545 41,000  Level FlightAware
08:13AM -30.4790 23.5480 46° Northeast 473 544 41,000  Level FlightAware
08:13AM -30.4170 23.6230 46° Northeast 472 543 41,000  Level FlightAware
08:14AM -30.3580 23.6930 46° Northeast 475 547 41,000  Level FlightAware
08:15AM -30.2840 23.7820 46° Northeast 476 548 41,000  Level FlightAware
08:15AM -30.2240 23.8540 46° Northeast 472 543 41,000  Level FlightAware
08:16AM -30.1550 23.9360 46° Northeast 471 542 41,000  Level FlightAware
08:17AM -30.0940 24.0090 46° Northeast 469 540 41,000  Level FlightAware
08:18AM -30.0320 24.0830 46° Northeast 471 542 41,000  Level FlightAware
08:18AM -29.9620 24.1670 46° Northeast 474 545 41,000  Level FlightAware
08:19AM -29.9010 24.2390 46° Northeast 488 562 41,000  Level FlightAware
08:20AM -29.8360 24.3160 46° Northeast 485 558 41,000  Level FlightAware
08:20AM -29.7680 24.3950 45° Northeast 485 558 41,000  Level FlightAware
08:21AM -29.7050 24.4700 46° Northeast 486 559 41,000  Level FlightAware
08:22AM -29.6340 24.5540 46° Northeast 485 558 41,000  Level FlightAware
08:22AM -29.5820 24.6150 46° Northeast 486 559 41,000  Level FlightAware
08:23AM -29.5170 24.6900 45° Northeast 486 559 41,000  Level FlightAware
08:24AM -29.4630 24.7520 45° Northeast 486 559 41,000  Level FlightAware
08:26AM -29.3053 24.9250 44° Northeast  Level Estimated
08:27AM -29.2134 25.0255 44° Northeast  Level Estimated
08:28AM -29.1213 25.1258 44° Northeast  Level Estimated
08:29AM -29.0292 25.2260 44° Northeast  Level Estimated
08:30AM -28.9370 25.3259 44° Northeast  Level Estimated
08:31AM -28.8448 25.4257 43° Northeast  Level Estimated
08:32AM -28.7524 25.5254 43° Northeast  Level Estimated
08:33AM -28.6568 25.6282 43° Northeast  Level Estimated
08:34AM -28.5612 25.7309 43° Northeast  Level Estimated
08:35AM -28.4654 25.8334 43° Northeast  Level Estimated
08:36AM -28.3696 25.9357 43° Northeast  Level Estimated
08:36AM -28.2220 26.1790 43° Northeast 487 560 41,000  Level FlightAware
08:37AM -28.2737 26.0378 43° Northeast  Level Estimated
08:37AM -28.1660 26.2430 45° Northeast 487 560 41,000  Level FlightAware
08:38AM -28.0890 26.3290 45° Northeast 487 560 41,000  Level FlightAware
08:39AM -28.0220 26.4040 45° Northeast 487 560 41,000  Level FlightAware
08:39AM -27.9520 26.4820 45° Northeast 486 559 41,000 -180 Level FlightAware
08:40AM -27.8880 26.5540 45° Northeast 485 558 40,800 -720 Descending FlightAware
08:41AM -27.8150 26.6360 45° Northeast 487 560 40,000 -1,920 Descending FlightAware
08:41AM -27.7490 26.7080 44° Northeast 488 562 38,100 -2,700 Descending FlightAware
08:42AM -27.6870 26.7780 45° Northeast 487 560 36,400 -2,340 Descending FlightAware
08:43AM -27.6150 26.8580 45° Northeast 482 555 34,800 -1,980 Descending FlightAware
08:43AM -27.5530 26.9270 45° Northeast 472 543 33,600 -1,860 Descending FlightAware
08:44AM -27.4820 27.0060 45° Northeast 459 528 32,200 -1,860 Descending FlightAware
08:45AM -27.4210 27.0720 44° Northeast 450 518 31,000 -1,800 Descending FlightAware
08:46AM -27.3640 27.1360 45° Northeast 443 510 29,800 -1,800 Descending FlightAware
08:46AM -27.2990 27.2060 44° Northeast 432 497 28,500 -1,740 Descending FlightAware
08:47AM -27.2430 27.2680 45° Northeast 421 484 27,400 -1,740 Descending FlightAware
08:48AM -27.1800 27.3340 43° Northeast 406 467 26,100 -1,680 Descending FlightAware
08:48AM -27.1330 27.3780 40° Northeast 399 459 25,200 -1,500 Descending FlightAware
08:49AM -27.0760 27.4320 40° Northeast 390 449 24,100 -1,560 Descending FlightAware
08:50AM -27.0150 27.4900 40° Northeast 381 438 22,900 -1,680 Descending FlightAware
08:50AM -26.9630 27.5390 40° Northeast 371 427 21,800 -1,620 Descending FlightAware
08:51AM -26.9160 27.5830 40° Northeast 364 419 20,900 -1,320 Descending FlightAware
08:52AM -26.8520 27.6430 40° Northeast 342 394 20,000 -1,020 Descending FlightAware
08:53AM -26.8040 27.6890 41° Northeast 322 371 19,400 -1,200 Descending FlightAware
08:53AM -26.7570 27.7270 36° Northeast 324 373 18,400 -1,500 Descending FlightAware
08:54AM -26.7060 27.7700 37° Northeast 324 373 17,300 -1,560 Descending FlightAware
08:55AM -26.6490 27.8180 37° Northeast 320 368 16,100 -1,620 Descending FlightAware
08:55AM -26.6120 27.8490 37° Northeast 318 366 15,300 -1,080 Descending FlightAware
08:56AM -26.5680 27.8860 37° Northeast 298 343 14,900 -600 Descending FlightAware
08:56AM -26.5430 27.9120 43° Northeast 285 328 14,700 -600 Descending FlightAware
08:56AM -26.5390 27.9220 66° East 283 326 14,600 -600 Descending FlightAware
08:57AM -26.5370 27.9340 79° East 281 323 14,500 -1,380 Descending FlightAware
08:57AM -26.5460 27.9840 101° East 281 323 13,700 -1,500 Descending FlightAware
08:58AM -26.5580 28.0410 103° East 280 322 12,900 -1,080 Descending FlightAware
08:58AM -26.5500 28.0860 79° East 267 307 12,300 -1,140 Descending FlightAware
08:59AM -26.5100 28.1290 44° Northeast 265 305 11,300 -1,380 Descending FlightAware
09:00AM -26.4840 28.1490 35° Northeast 259 298 10,700 -1,140 Descending FlightAware
09:00AM -26.4400 28.1630 16° North 250 288 10,100 -900 Descending FlightAware
09:01AM -26.4090 28.1720 15° North 244 281 9,700 -900 Descending FlightAware
09:01AM -26.3760 28.1830 17° North 232 267 9,200 -840 Descending FlightAware
09:02AM -26.3540 28.1900 16° North 225 259 9,000 -1,020 Descending FlightAware
09:02AM -26.3190 28.2000 14° North 221 254 8,300 -1,200 Descending FlightAware
09:03AM -26.2930 28.2080 15° North 229 264 7,800 -1,080 Descending FlightAware
09:03AM -26.2700 28.2150 15° North 221 254 7,400 -1,140 Descending FlightAware
09:04AM -26.2360 28.2260 16° North 202 232 6,700 -1,020 Descending FlightAware
09:04AM -26.2160 28.2320 15° North 179 206 6,400 -900 Descending FlightAware
09:04AM -26.1920 28.2400 17° North 162 186 5,900 -900 Descending FlightAware
09:05AM -26.1750 28.2450 15° North 157 181 5,600 -720 Descending FlightAware